Impacts METAR Board
IDs:

KLAX - Los Angeles Intl, CA, US

Updated at: 0500 UTC 17 Aug 2018
Potential Impact None Slight Moderate High
Time 16/17Z 16/18Z 16/19Z 16/20Z 16/21Z 16/22Z 16/23Z 17/00Z 17/01Z 17/02Z 17/03Z 17/04Z 17/05Z
Temp78 79 79 79 80 79 78 77 75 74 74 73 73
Dewpt66 67 67 67 67 67 67 67 67 67 68 68 67
Altim30.02 30.02 30.01 30.02 30.01 30.00 29.98 29.98 29.99 29.99 30.01 30.02 30.03
VIS10 9 10 10 10 10 10 10 10 10 9 10 10
CIG-- -- -- -- -- -- -- -- 12 -- -- 11 13
CoverFEWFEWFEWFEWFEWFEWFEWSCTBKNFEWFEWBKNBKN
FltCatVFRVFRVFRVFRVFRVFRVFRVFRMVFRVFRVFRMVFRMVFR
WX--------------------------
WDir0260240260270260250240270240260280270
WSpd3 9 11 11 13 12 13 10 11 8 7 7 9
WGst-- -- -- -- -- 17 -- -- -- -- -- -- --
Raw hourly METARs
KLAX 161653Z VRB03KT 10SM FEW019 26/19 A3002 RMK AO2 SLP162 T02560189
KLAX 161753Z 26009KT 9SM FEW020 26/19 A3002 RMK AO2 SLP163 T02610194 10267 20222 51003
KLAX 161853Z 24011KT 10SM FEW020 26/19 A3001 RMK AO2 SLP161 T02610194
KLAX 161953Z 26011KT 10SM FEW027 26/19 A3002 RMK AO2 SLP162 CB DSNT E T02610194
KLAX 162053Z 27013KT 10SM FEW027 27/19 A3001 RMK AO2 SLP159 TCU DSNT N CB DSNT NE T02670194 58004
KLAX 162153Z 26012G17KT 10SM FEW014 FEW050 26/19 A3000 RMK AO2 SLP155 CB DSNT NE AND E T02610194
KLAX 162253Z 25013KT 10SM FEW013 FEW050 26/19 A2998 RMK AO2 SLP150 CB DSNT NE T02560194
KLAX 162353Z 24010KT 10SM FEW014 FEW100 SCT150 25/19 A2998 RMK AO2 SLP150 CB DSNT NE T02500194 10272 20244 56008
KLAX 170105Z 27011KT 10SM BKN012 24/19 A2999 RMK AO2 T02390194
KLAX 170153Z 24008KT 10SM FEW012 FEW150 23/19 A2999 RMK AO2 SLP154 T02330194
KLAX 170253Z COR 26007KT 9SM FEW012 FEW150 23/20 A3001 RMK AO2 SLP158 T02330200 53008
KLAX 170353Z 28007KT 10SM BKN011 23/20 A3002 RMK AO2 SLP163 T02280200
KLAX 170453Z 27009KT 10SM BKN013 23/19 A3003 RMK AO2 SLP167 T02280194



Page loaded:  05:26 UTC  |   10:26 PM Pacific  |   11:26 PM Mountain  |   12:26 AM Central  |   01:26 AM Eastern

 

ADVISORIES

FORECASTS

FORECASTS

OBSERVATIONS

USER TOOLS

ABOUT US